sensor_id;sensor_type;location;lat;lon;timestamp;P1;durP1;ratioP1;P2;durP2;ratioP2
71637;SDS011;59485;43.542;-5.676;2022-11-20T00:00:53;4.88;;;0.57;;
71637;SDS011;59485;43.542;-5.676;2022-11-20T00:03:19;5.82;;;0.80;;
71637;SDS011;59485;43.542;-5.676;2022-11-20T00:05:45;3.77;;;0.60;;
71637;SDS011;59485;43.542;-5.676;2022-11-20T00:08:13;4.82;;;0.60;;
71637;SDS011;59485;43.542;-5.676;2022-11-20T00:10:42;4.83;;;0.80;;
71637;SDS011;59485;43.542;-5.676;2022-11-20T00:20:46;2.83;;;0.50;;
71637;SDS011;59485;43.542;-5.676;2022-11-20T00:31:01;2.67;;;0.35;;
71637;SDS011;59485;43.542;-5.676;2022-11-20T00:33:34;3.22;;;0.75;;
71637;SDS011;59485;43.542;-5.676;2022-11-20T00:43:47;2.70;;;0.63;;
71637;SDS011;59485;43.542;-5.676;2022-11-20T00:46:14;3.10;;;0.63;;
71637;SDS011;59485;43.542;-5.676;2022-11-20T00:48:42;3.33;;;0.60;;
71637;SDS011;59485;43.542;-5.676;2022-11-20T00:51:11;2.85;;;0.50;;
71637;SDS011;59485;43.542;-5.676;2022-11-20T00:53:38;4.10;;;0.83;;
71637;SDS011;59485;43.542;-5.676;2022-11-20T00:56:07;4.70;;;0.60;;
71637;SDS011;59485;43.542;-5.676;2022-11-20T00:58:36;3.65;;;0.55;;
71637;SDS011;59485;43.542;-5.676;2022-11-20T01:03:43;2.17;;;0.30;;
71637;SDS011;59485;43.542;-5.676;2022-11-20T01:06:12;2.67;;;0.40;;
71637;SDS011;59485;43.542;-5.676;2022-11-20T01:08:40;2.63;;;0.30;;
71637;SDS011;59485;43.542;-5.676;2022-11-20T01:11:12;2.22;;;0.30;;
71637;SDS011;59485;43.542;-5.676;2022-11-20T01:13:43;2.90;;;0.32;;
71637;SDS011;59485;43.542;-5.676;2022-11-20T01:16:12;3.15;;;0.40;;
71637;SDS011;59485;43.542;-5.676;2022-11-20T01:18:45;3.40;;;0.30;;
71637;SDS011;59485;43.542;-5.676;2022-11-20T01:21:21;2.50;;;0.30;;
71637;SDS011;59485;43.542;-5.676;2022-11-20T01:23:50;2.38;;;0.30;;
71637;SDS011;59485;43.542;-5.676;2022-11-20T01:26:19;1.77;;;0.30;;
71637;SDS011;59485;43.542;-5.676;2022-11-20T01:28:50;3.17;;;0.40;;
71637;SDS011;59485;43.542;-5.676;2022-11-20T01:31:17;2.78;;;0.63;;
71637;SDS011;59485;43.542;-5.676;2022-11-20T01:33:45;4.15;;;0.40;;
71637;SDS011;59485;43.542;-5.676;2022-11-20T01:36:12;2.83;;;0.40;;
71637;SDS011;59485;43.542;-5.676;2022-11-20T01:38:46;2.78;;;0.40;;
71637;SDS011;59485;43.542;-5.676;2022-11-20T01:41:14;1.93;;;0.27;;
71637;SDS011;59485;43.542;-5.676;2022-11-20T01:44:01;1.77;;;0.30;;
71637;SDS011;59485;43.542;-5.676;2022-11-20T01:46:32;2.35;;;0.30;;
71637;SDS011;59485;43.542;-5.676;2022-11-20T01:49:14;1.88;;;0.45;;
71637;SDS011;59485;43.542;-5.676;2022-11-20T01:51:52;2.47;;;0.20;;
71637;SDS011;59485;43.542;-5.676;2022-11-20T01:54:23;2.55;;;0.40;;
71637;SDS011;59485;43.542;-5.676;2022-11-20T01:56:56;1.92;;;0.20;;
71637;SDS011;59485;43.542;-5.676;2022-11-20T01:59:24;2.83;;;0.43;;
71637;SDS011;59485;43.542;-5.676;2022-11-20T02:01:52;1.67;;;0.20;;
71637;SDS011;59485;43.542;-5.676;2022-11-20T02:04:18;2.20;;;0.20;;
71637;SDS011;59485;43.542;-5.676;2022-11-20T02:07:06;2.97;;;0.20;;
71637;SDS011;59485;43.542;-5.676;2022-11-20T02:09:31;2.00;;;0.30;;
71637;SDS011;59485;43.542;-5.676;2022-11-20T02:11:56;2.30;;;0.30;;
71637;SDS011;59485;43.542;-5.676;2022-11-20T02:14:24;1.57;;;0.20;;
71637;SDS011;59485;43.542;-5.676;2022-11-20T02:16:50;2.97;;;0.20;;
71637;SDS011;59485;43.542;-5.676;2022-11-20T02:19:30;1.83;;;0.20;;
71637;SDS011;59485;43.542;-5.676;2022-11-20T02:25:00;1.55;;;0.20;;
71637;SDS011;59485;43.542;-5.676;2022-11-20T02:27:29;1.67;;;0.30;;
71637;SDS011;59485;43.542;-5.676;2022-11-20T02:29:58;2.10;;;0.50;;
71637;SDS011;59485;43.542;-5.676;2022-11-20T02:32:28;2.40;;;0.45;;
71637;SDS011;59485;43.542;-5.676;2022-11-20T02:34:57;1.90;;;0.43;;
71637;SDS011;59485;43.542;-5.676;2022-11-20T02:37:32;2.07;;;0.20;;
71637;SDS011;59485;43.542;-5.676;2022-11-20T02:40:02;2.45;;;0.25;;
71637;SDS011;59485;43.542;-5.676;2022-11-20T02:42:31;1.77;;;0.50;;
71637;SDS011;59485;43.542;-5.676;2022-11-20T02:44:56;1.60;;;0.27;;
71637;SDS011;59485;43.542;-5.676;2022-11-20T02:47:22;2.45;;;0.40;;
71637;SDS011;59485;43.542;-5.676;2022-11-20T02:49:47;1.67;;;0.40;;
71637;SDS011;59485;43.542;-5.676;2022-11-20T02:52:13;3.03;;;0.40;;
71637;SDS011;59485;43.542;-5.676;2022-11-20T02:54:38;1.93;;;0.30;;
71637;SDS011;59485;43.542;-5.676;2022-11-20T02:57:04;2.23;;;0.13;;
71637;SDS011;59485;43.542;-5.676;2022-11-20T02:59:29;1.92;;;0.30;;
71637;SDS011;59485;43.542;-5.676;2022-11-20T03:01:55;1.67;;;0.30;;
71637;SDS011;59485;43.542;-5.676;2022-11-20T03:04:21;2.73;;;0.73;;
71637;SDS011;59485;43.542;-5.676;2022-11-20T03:06:46;2.25;;;0.30;;
71637;SDS011;59485;43.542;-5.676;2022-11-20T03:09:12;2.67;;;0.43;;
71637;SDS011;59485;43.542;-5.676;2022-11-20T03:11:38;2.53;;;0.43;;
71637;SDS011;59485;43.542;-5.676;2022-11-20T03:14:04;1.97;;;0.33;;
71637;SDS011;59485;43.542;-5.676;2022-11-20T03:16:30;2.22;;;0.20;;
71637;SDS011;59485;43.542;-5.676;2022-11-20T03:18:57;2.50;;;0.43;;
71637;SDS011;59485;43.542;-5.676;2022-11-20T03:21:26;2.28;;;0.50;;
71637;SDS011;59485;43.542;-5.676;2022-11-20T03:23:52;1.50;;;0.20;;
71637;SDS011;59485;43.542;-5.676;2022-11-20T03:26:20;1.40;;;0.25;;
71637;SDS011;59485;43.542;-5.676;2022-11-20T03:28:48;2.05;;;0.60;;
71637;SDS011;59485;43.542;-5.676;2022-11-20T03:31:17;1.40;;;0.10;;
71637;SDS011;59485;43.542;-5.676;2022-11-20T03:33:44;1.73;;;0.20;;
71637;SDS011;59485;43.542;-5.676;2022-11-20T03:36:11;2.22;;;0.32;;
71637;SDS011;59485;43.542;-5.676;2022-11-20T03:38:38;1.83;;;0.20;;
71637;SDS011;59485;43.542;-5.676;2022-11-20T03:41:05;1.45;;;0.22;;
71637;SDS011;59485;43.542;-5.676;2022-11-20T04:04:01;8.77;;;3.45;;
71637;SDS011;59485;43.542;-5.676;2022-11-20T04:06:29;14.75;;;4.05;;
71637;SDS011;59485;43.542;-5.676;2022-11-20T04:08:58;8.13;;;3.33;;
71637;SDS011;59485;43.542;-5.676;2022-11-20T04:11:25;9.68;;;3.38;;
71637;SDS011;59485;43.542;-5.676;2022-11-20T04:13:54;11.20;;;3.05;;
71637;SDS011;59485;43.542;-5.676;2022-11-20T04:16:21;9.50;;;3.30;;
71637;SDS011;59485;43.542;-5.676;2022-11-20T04:18:52;6.70;;;2.57;;
71637;SDS011;59485;43.542;-5.676;2022-11-20T04:21:19;10.07;;;2.65;;
71637;SDS011;59485;43.542;-5.676;2022-11-20T04:23:44;6.35;;;2.65;;
71637;SDS011;59485;43.542;-5.676;2022-11-20T04:26:11;13.23;;;5.00;;
71637;SDS011;59485;43.542;-5.676;2022-11-20T04:28:38;6.50;;;2.22;;
71637;SDS011;59485;43.542;-5.676;2022-11-20T04:31:08;5.90;;;1.50;;
71637;SDS011;59485;43.542;-5.676;2022-11-20T04:33:38;5.85;;;1.55;;
71637;SDS011;59485;43.542;-5.676;2022-11-20T04:36:06;5.03;;;1.90;;
71637;SDS011;59485;43.542;-5.676;2022-11-20T04:38:34;4.20;;;1.58;;
71637;SDS011;59485;43.542;-5.676;2022-11-20T04:41:01;8.20;;;2.30;;
71637;SDS011;59485;43.542;-5.676;2022-11-20T04:43:30;9.00;;;2.42;;
71637;SDS011;59485;43.542;-5.676;2022-11-20T04:45:56;11.60;;;5.97;;
71637;SDS011;59485;43.542;-5.676;2022-11-20T04:48:23;15.52;;;8.52;;
71637;SDS011;59485;43.542;-5.676;2022-11-20T04:50:49;12.98;;;7.22;;
71637;SDS011;59485;43.542;-5.676;2022-11-20T04:53:15;12.75;;;6.72;;
71637;SDS011;59485;43.542;-5.676;2022-11-20T04:55:41;9.07;;;3.93;;
71637;SDS011;59485;43.542;-5.676;2022-11-20T04:58:07;6.03;;;1.83;;
71637;SDS011;59485;43.542;-5.676;2022-11-20T05:00:32;6.13;;;1.43;;
71637;SDS011;59485;43.542;-5.676;2022-11-20T05:02:58;4.30;;;0.88;;
71637;SDS011;59485;43.542;-5.676;2022-11-20T05:05:23;2.53;;;0.40;;
71637;SDS011;59485;43.542;-5.676;2022-11-20T05:07:49;2.70;;;0.40;;
71637;SDS011;59485;43.542;-5.676;2022-11-20T05:10:15;3.60;;;0.80;;
71637;SDS011;59485;43.542;-5.676;2022-11-20T05:12:40;2.97;;;0.67;;
71637;SDS011;59485;43.542;-5.676;2022-11-20T05:15:06;2.17;;;0.50;;
71637;SDS011;59485;43.542;-5.676;2022-11-20T05:17:32;2.92;;;0.40;;
71637;SDS011;59485;43.542;-5.676;2022-11-20T05:19:58;1.73;;;0.30;;
71637;SDS011;59485;43.542;-5.676;2022-11-20T05:22:23;2.45;;;0.55;;
71637;SDS011;59485;43.542;-5.676;2022-11-20T05:24:49;2.10;;;0.30;;
71637;SDS011;59485;43.542;-5.676;2022-11-20T05:27:16;1.80;;;0.25;;
71637;SDS011;59485;43.542;-5.676;2022-11-20T05:29:42;1.80;;;0.47;;
71637;SDS011;59485;43.542;-5.676;2022-11-20T05:32:07;3.33;;;1.17;;
71637;SDS011;59485;43.542;-5.676;2022-11-20T05:34:35;3.43;;;1.13;;
71637;SDS011;59485;43.542;-5.676;2022-11-20T05:37:01;4.63;;;1.48;;
71637;SDS011;59485;43.542;-5.676;2022-11-20T05:39:29;5.60;;;1.48;;
71637;SDS011;59485;43.542;-5.676;2022-11-20T05:42:00;5.03;;;1.27;;
71637;SDS011;59485;43.542;-5.676;2022-11-20T05:44:45;5.53;;;1.85;;
71637;SDS011;59485;43.542;-5.676;2022-11-20T05:47:13;3.47;;;0.97;;
71637;SDS011;59485;43.542;-5.676;2022-11-20T05:49:38;4.22;;;0.73;;
71637;SDS011;59485;43.542;-5.676;2022-11-20T05:52:04;3.73;;;0.57;;
71637;SDS011;59485;43.542;-5.676;2022-11-20T05:54:29;6.70;;;1.50;;
71637;SDS011;59485;43.542;-5.676;2022-11-20T05:56:55;5.33;;;0.90;;
71637;SDS011;59485;43.542;-5.676;2022-11-20T05:59:21;5.93;;;0.50;;
71637;SDS011;59485;43.542;-5.676;2022-11-20T06:01:46;3.92;;;0.52;;
71637;SDS011;59485;43.542;-5.676;2022-11-20T06:04:12;5.80;;;0.77;;
71637;SDS011;59485;43.542;-5.676;2022-11-20T06:06:37;4.27;;;0.60;;
71637;SDS011;59485;43.542;-5.676;2022-11-20T06:09:03;7.05;;;0.77;;
71637;SDS011;59485;43.542;-5.676;2022-11-20T06:11:28;8.73;;;0.67;;
71637;SDS011;59485;43.542;-5.676;2022-11-20T06:13:54;6.70;;;1.10;;
71637;SDS011;59485;43.542;-5.676;2022-11-20T06:19:56;9.50;;;1.20;;
71637;SDS011;59485;43.542;-5.676;2022-11-20T06:24:51;3.90;;;0.75;;
71637;SDS011;59485;43.542;-5.676;2022-11-20T06:27:17;9.35;;;1.48;;
71637;SDS011;59485;43.542;-5.676;2022-11-20T06:29:43;5.18;;;1.17;;
71637;SDS011;59485;43.542;-5.676;2022-11-20T06:32:09;6.93;;;1.43;;
71637;SDS011;59485;43.542;-5.676;2022-11-20T06:34:34;9.57;;;1.43;;
71637;SDS011;59485;43.542;-5.676;2022-11-20T06:37:00;8.38;;;1.00;;
71637;SDS011;59485;43.542;-5.676;2022-11-20T06:39:25;7.77;;;1.30;;
71637;SDS011;59485;43.542;-5.676;2022-11-20T06:41:51;7.10;;;1.30;;
71637;SDS011;59485;43.542;-5.676;2022-11-20T06:44:16;12.50;;;1.30;;
71637;SDS011;59485;43.542;-5.676;2022-11-20T06:46:42;9.83;;;1.47;;
71637;SDS011;59485;43.542;-5.676;2022-11-20T06:49:07;7.23;;;1.27;;
71637;SDS011;59485;43.542;-5.676;2022-11-20T06:51:33;9.60;;;1.08;;
71637;SDS011;59485;43.542;-5.676;2022-11-20T06:53:59;6.73;;;0.90;;
71637;SDS011;59485;43.542;-5.676;2022-11-20T06:56:26;7.50;;;1.73;;
71637;SDS011;59485;43.542;-5.676;2022-11-20T06:58:51;9.15;;;1.77;;
71637;SDS011;59485;43.542;-5.676;2022-11-20T07:01:17;7.97;;;1.30;;
71637;SDS011;59485;43.542;-5.676;2022-11-20T07:03:43;9.52;;;1.63;;
71637;SDS011;59485;43.542;-5.676;2022-11-20T07:06:10;8.77;;;1.53;;
71637;SDS011;59485;43.542;-5.676;2022-11-20T07:08:36;12.93;;;2.00;;
71637;SDS011;59485;43.542;-5.676;2022-11-20T07:11:03;10.20;;;1.70;;
71637;SDS011;59485;43.542;-5.676;2022-11-20T07:13:30;10.57;;;2.17;;
71637;SDS011;59485;43.542;-5.676;2022-11-20T07:16:03;13.23;;;2.00;;
71637;SDS011;59485;43.542;-5.676;2022-11-20T07:18:31;12.10;;;2.40;;
71637;SDS011;59485;43.542;-5.676;2022-11-20T07:20:59;12.73;;;2.10;;
71637;SDS011;59485;43.542;-5.676;2022-11-20T07:23:28;12.88;;;2.88;;
71637;SDS011;59485;43.542;-5.676;2022-11-20T07:25:53;9.93;;;2.03;;
71637;SDS011;59485;43.542;-5.676;2022-11-20T07:28:19;9.27;;;2.90;;
71637;SDS011;59485;43.542;-5.676;2022-11-20T07:30:49;13.83;;;3.17;;
71637;SDS011;59485;43.542;-5.676;2022-11-20T07:33:15;11.82;;;2.92;;
71637;SDS011;59485;43.542;-5.676;2022-11-20T07:35:41;20.83;;;9.57;;
71637;SDS011;59485;43.542;-5.676;2022-11-20T07:38:06;23.40;;;9.88;;
71637;SDS011;59485;43.542;-5.676;2022-11-20T07:40:33;7.10;;;1.37;;
71637;SDS011;59485;43.542;-5.676;2022-11-20T07:42:58;6.60;;;1.27;;
71637;SDS011;59485;43.542;-5.676;2022-11-20T07:45:24;9.07;;;1.30;;
71637;SDS011;59485;43.542;-5.676;2022-11-20T07:47:50;11.10;;;1.38;;
71637;SDS011;59485;43.542;-5.676;2022-11-20T07:50:19;10.65;;;1.45;;
71637;SDS011;59485;43.542;-5.676;2022-11-20T07:52:44;8.97;;;1.10;;
71637;SDS011;59485;43.542;-5.676;2022-11-20T07:55:10;12.17;;;1.70;;
71637;SDS011;59485;43.542;-5.676;2022-11-20T07:57:36;13.65;;;1.67;;
71637;SDS011;59485;43.542;-5.676;2022-11-20T08:00:05;13.47;;;1.80;;
71637;SDS011;59485;43.542;-5.676;2022-11-20T08:02:34;13.65;;;2.00;;
71637;SDS011;59485;43.542;-5.676;2022-11-20T08:05:03;15.00;;;1.98;;
71637;SDS011;59485;43.542;-5.676;2022-11-20T08:07:28;20.20;;;2.30;;
71637;SDS011;59485;43.542;-5.676;2022-11-20T08:09:54;16.73;;;2.70;;
71637;SDS011;59485;43.542;-5.676;2022-11-20T08:12:26;20.75;;;2.33;;
71637;SDS011;59485;43.542;-5.676;2022-11-20T08:15:10;23.17;;;2.27;;
71637;SDS011;59485;43.542;-5.676;2022-11-20T08:17:35;23.27;;;2.17;;
71637;SDS011;59485;43.542;-5.676;2022-11-20T08:20:01;13.80;;;2.23;;
71637;SDS011;59485;43.542;-5.676;2022-11-20T08:22:26;16.97;;;2.50;;
71637;SDS011;59485;43.542;-5.676;2022-11-20T08:24:52;21.23;;;2.95;;
71637;SDS011;59485;43.542;-5.676;2022-11-20T08:27:17;21.90;;;2.37;;
71637;SDS011;59485;43.542;-5.676;2022-11-20T08:29:43;21.20;;;2.73;;
71637;SDS011;59485;43.542;-5.676;2022-11-20T08:32:08;18.17;;;2.13;;
71637;SDS011;59485;43.542;-5.676;2022-11-20T08:34:34;23.00;;;2.70;;
71637;SDS011;59485;43.542;-5.676;2022-11-20T08:37:01;18.33;;;2.10;;
71637;SDS011;59485;43.542;-5.676;2022-11-20T08:39:27;20.30;;;2.17;;
71637;SDS011;59485;43.542;-5.676;2022-11-20T08:41:52;19.20;;;2.30;;
71637;SDS011;59485;43.542;-5.676;2022-11-20T08:44:18;21.58;;;2.72;;
71637;SDS011;59485;43.542;-5.676;2022-11-20T08:46:43;19.93;;;2.10;;
71637;SDS011;59485;43.542;-5.676;2022-11-20T08:49:11;23.88;;;2.75;;
71637;SDS011;59485;43.542;-5.676;2022-11-20T08:51:38;19.20;;;2.60;;
71637;SDS011;59485;43.542;-5.676;2022-11-20T08:54:04;22.33;;;2.83;;
71637;SDS011;59485;43.542;-5.676;2022-11-20T08:56:31;17.80;;;2.22;;
71637;SDS011;59485;43.542;-5.676;2022-11-20T08:58:57;18.23;;;1.80;;
71637;SDS011;59485;43.542;-5.676;2022-11-20T09:01:24;24.90;;;3.20;;
71637;SDS011;59485;43.542;-5.676;2022-11-20T09:03:51;17.10;;;2.30;;
71637;SDS011;59485;43.542;-5.676;2022-11-20T09:06:17;23.13;;;2.30;;
71637;SDS011;59485;43.542;-5.676;2022-11-20T09:08:43;17.67;;;2.03;;
71637;SDS011;59485;43.542;-5.676;2022-11-20T09:11:09;16.42;;;2.67;;
71637;SDS011;59485;43.542;-5.676;2022-11-20T09:13:35;24.73;;;3.20;;
71637;SDS011;59485;43.542;-5.676;2022-11-20T09:16:05;23.83;;;3.13;;
71637;SDS011;59485;43.542;-5.676;2022-11-20T09:18:33;26.13;;;2.20;;
71637;SDS011;59485;43.542;-5.676;2022-11-20T09:21:03;19.65;;;2.88;;
71637;SDS011;59485;43.542;-5.676;2022-11-20T09:23:36;16.07;;;2.47;;
71637;SDS011;59485;43.542;-5.676;2022-11-20T09:26:21;19.52;;;2.28;;
71637;SDS011;59485;43.542;-5.676;2022-11-20T09:28:46;23.27;;;2.63;;
71637;SDS011;59485;43.542;-5.676;2022-11-20T09:31:21;23.30;;;2.80;;
71637;SDS011;59485;43.542;-5.676;2022-11-20T09:33:48;19.52;;;2.97;;
71637;SDS011;59485;43.542;-5.676;2022-11-20T09:36:14;23.48;;;2.78;;
71637;SDS011;59485;43.542;-5.676;2022-11-20T09:38:41;17.45;;;2.42;;
71637;SDS011;59485;43.542;-5.676;2022-11-20T09:41:06;27.10;;;2.93;;
71637;SDS011;59485;43.542;-5.676;2022-11-20T09:44:07;28.15;;;3.42;;
71637;SDS011;59485;43.542;-5.676;2022-11-20T09:46:38;21.67;;;2.95;;
71637;SDS011;59485;43.542;-5.676;2022-11-20T09:52:00;30.85;;;3.97;;
71637;SDS011;59485;43.542;-5.676;2022-11-20T09:54:41;27.80;;;2.92;;
71637;SDS011;59485;43.542;-5.676;2022-11-20T09:57:11;30.10;;;3.55;;
71637;SDS011;59485;43.542;-5.676;2022-11-20T09:59:51;24.88;;;3.28;;
71637;SDS011;59485;43.542;-5.676;2022-11-20T10:05:19;27.67;;;3.17;;
71637;SDS011;59485;43.542;-5.676;2022-11-20T10:08:29;24.48;;;3.95;;
71637;SDS011;59485;43.542;-5.676;2022-11-20T10:13:41;24.27;;;2.72;;
71637;SDS011;59485;43.542;-5.676;2022-11-20T10:19:38;27.48;;;3.03;;
71637;SDS011;59485;43.542;-5.676;2022-11-20T10:25:27;29.08;;;3.92;;
71637;SDS011;59485;43.542;-5.676;2022-11-20T10:28:12;23.60;;;4.05;;
71637;SDS011;59485;43.542;-5.676;2022-11-20T10:30:47;25.00;;;3.00;;
71637;SDS011;59485;43.542;-5.676;2022-11-20T10:33:22;21.77;;;2.63;;
71637;SDS011;59485;43.542;-5.676;2022-11-20T10:38:42;21.73;;;2.58;;
71637;SDS011;59485;43.542;-5.676;2022-11-20T10:41:20;22.48;;;3.00;;
71637;SDS011;59485;43.542;-5.676;2022-11-20T10:46:38;27.65;;;3.63;;
71637;SDS011;59485;43.542;-5.676;2022-11-20T10:49:12;27.58;;;3.95;;
71637;SDS011;59485;43.542;-5.676;2022-11-20T11:00:05;24.35;;;3.08;;
71637;SDS011;59485;43.542;-5.676;2022-11-20T11:02:53;22.73;;;2.92;;
71637;SDS011;59485;43.542;-5.676;2022-11-20T11:07:46;23.80;;;3.53;;
71637;SDS011;59485;43.542;-5.676;2022-11-20T11:10:16;22.83;;;3.25;;
71637;SDS011;59485;43.542;-5.676;2022-11-20T11:12:47;24.17;;;3.45;;
71637;SDS011;59485;43.542;-5.676;2022-11-20T11:15:15;20.50;;;2.37;;
71637;SDS011;59485;43.542;-5.676;2022-11-20T11:17:52;27.08;;;2.70;;
71637;SDS011;59485;43.542;-5.676;2022-11-20T11:20:21;24.00;;;3.20;;
71637;SDS011;59485;43.542;-5.676;2022-11-20T11:22:53;25.20;;;3.30;;
71637;SDS011;59485;43.542;-5.676;2022-11-20T11:27:59;21.80;;;3.78;;
71637;SDS011;59485;43.542;-5.676;2022-11-20T11:30:45;19.88;;;2.70;;
71637;SDS011;59485;43.542;-5.676;2022-11-20T11:33:26;24.63;;;3.15;;
71637;SDS011;59485;43.542;-5.676;2022-11-20T11:35:54;18.87;;;2.37;;
71637;SDS011;59485;43.542;-5.676;2022-11-20T11:41:03;21.08;;;3.53;;
71637;SDS011;59485;43.542;-5.676;2022-11-20T11:43:32;26.75;;;3.00;;
71637;SDS011;59485;43.542;-5.676;2022-11-20T11:46:28;18.23;;;2.40;;
71637;SDS011;59485;43.542;-5.676;2022-11-20T11:49:18;16.97;;;2.23;;
71637;SDS011;59485;43.542;-5.676;2022-11-20T12:00:09;22.20;;;3.38;;
71637;SDS011;59485;43.542;-5.676;2022-11-20T12:05:26;17.23;;;2.55;;
71637;SDS011;59485;43.542;-5.676;2022-11-20T12:10:48;17.92;;;2.35;;
71637;SDS011;59485;43.542;-5.676;2022-11-20T12:15:58;17.33;;;1.90;;
71637;SDS011;59485;43.542;-5.676;2022-11-20T12:18:24;19.13;;;2.78;;
71637;SDS011;59485;43.542;-5.676;2022-11-20T12:23:35;15.25;;;1.67;;
71637;SDS011;59485;43.542;-5.676;2022-11-20T12:31:59;18.20;;;2.83;;
71637;SDS011;59485;43.542;-5.676;2022-11-20T12:39:43;20.15;;;2.65;;
71637;SDS011;59485;43.542;-5.676;2022-11-20T12:42:25;19.50;;;2.33;;
71637;SDS011;59485;43.542;-5.676;2022-11-20T13:07:01;13.55;;;1.80;;
71637;SDS011;59485;43.542;-5.676;2022-11-20T13:09:33;13.60;;;2.07;;
71637;SDS011;59485;43.542;-5.676;2022-11-20T13:12:10;18.58;;;2.33;;
71637;SDS011;59485;43.542;-5.676;2022-11-20T13:14:52;15.43;;;2.28;;
71637;SDS011;59485;43.542;-5.676;2022-11-20T13:17:42;13.85;;;1.70;;
71637;SDS011;59485;43.542;-5.676;2022-11-20T13:20:14;18.70;;;2.58;;
71637;SDS011;59485;43.542;-5.676;2022-11-20T13:25:25;13.55;;;2.20;;
71637;SDS011;59485;43.542;-5.676;2022-11-20T13:27:52;21.88;;;3.10;;
71637;SDS011;59485;43.542;-5.676;2022-11-20T13:30:22;11.57;;;1.60;;
71637;SDS011;59485;43.542;-5.676;2022-11-20T13:35:40;13.70;;;1.80;;
71637;SDS011;59485;43.542;-5.676;2022-11-20T13:38:08;16.42;;;1.60;;
71637;SDS011;59485;43.542;-5.676;2022-11-20T13:40:38;15.02;;;2.35;;
71637;SDS011;59485;43.542;-5.676;2022-11-20T13:45:56;13.45;;;1.95;;
71637;SDS011;59485;43.542;-5.676;2022-11-20T13:48:24;16.47;;;1.73;;
71637;SDS011;59485;43.542;-5.676;2022-11-20T13:50:57;16.10;;;1.83;;
71637;SDS011;59485;43.542;-5.676;2022-11-20T13:53:44;21.05;;;2.50;;
71637;SDS011;59485;43.542;-5.676;2022-11-20T13:59:38;16.35;;;2.15;;
71637;SDS011;59485;43.542;-5.676;2022-11-20T14:02:16;16.43;;;2.20;;
71637;SDS011;59485;43.542;-5.676;2022-11-20T14:04:45;14.13;;;1.88;;
71637;SDS011;59485;43.542;-5.676;2022-11-20T14:07:14;11.93;;;2.20;;
71637;SDS011;59485;43.542;-5.676;2022-11-20T14:09:49;14.57;;;1.52;;
71637;SDS011;59485;43.542;-5.676;2022-11-20T14:12:21;14.93;;;1.60;;
71637;SDS011;59485;43.542;-5.676;2022-11-20T14:14:53;11.37;;;1.23;;
71637;SDS011;59485;43.542;-5.676;2022-11-20T14:17:20;17.70;;;2.33;;
71637;SDS011;59485;43.542;-5.676;2022-11-20T14:19:51;14.70;;;2.10;;
71637;SDS011;59485;43.542;-5.676;2022-11-20T14:24:46;17.40;;;2.67;;
71637;SDS011;59485;43.542;-5.676;2022-11-20T14:27:14;17.07;;;2.00;;
71637;SDS011;59485;43.542;-5.676;2022-11-20T14:29:46;15.80;;;2.05;;
71637;SDS011;59485;43.542;-5.676;2022-11-20T14:32:15;15.52;;;2.05;;
71637;SDS011;59485;43.542;-5.676;2022-11-20T14:34:47;10.15;;;1.75;;
71637;SDS011;59485;43.542;-5.676;2022-11-20T14:37:21;18.77;;;2.55;;
71637;SDS011;59485;43.542;-5.676;2022-11-20T14:39:50;11.03;;;1.60;;
71637;SDS011;59485;43.542;-5.676;2022-11-20T14:42:19;17.73;;;2.40;;
71637;SDS011;59485;43.542;-5.676;2022-11-20T14:45:00;14.93;;;1.70;;
71637;SDS011;59485;43.542;-5.676;2022-11-20T14:47:29;7.60;;;1.25;;
71637;SDS011;59485;43.542;-5.676;2022-11-20T14:49:56;12.10;;;1.75;;
71637;SDS011;59485;43.542;-5.676;2022-11-20T14:52:25;17.33;;;2.70;;
71637;SDS011;59485;43.542;-5.676;2022-11-20T14:54:56;15.15;;;2.55;;
71637;SDS011;59485;43.542;-5.676;2022-11-20T14:57:30;16.23;;;1.90;;
71637;SDS011;59485;43.542;-5.676;2022-11-20T15:02:55;10.73;;;1.75;;
71637;SDS011;59485;43.542;-5.676;2022-11-20T15:05:22;13.40;;;1.70;;
71637;SDS011;59485;43.542;-5.676;2022-11-20T15:08:08;14.95;;;1.55;;
71637;SDS011;59485;43.542;-5.676;2022-11-20T15:10:35;12.73;;;1.77;;
71637;SDS011;59485;43.542;-5.676;2022-11-20T15:13:05;9.98;;;1.73;;
71637;SDS011;59485;43.542;-5.676;2022-11-20T15:18:19;13.43;;;2.13;;
71637;SDS011;59485;43.542;-5.676;2022-11-20T15:20:52;13.30;;;1.73;;
71637;SDS011;59485;43.542;-5.676;2022-11-20T15:23:20;14.50;;;1.98;;
71637;SDS011;59485;43.542;-5.676;2022-11-20T15:25:46;16.27;;;2.43;;
71637;SDS011;59485;43.542;-5.676;2022-11-20T15:28:27;14.75;;;2.17;;
71637;SDS011;59485;43.542;-5.676;2022-11-20T15:30:55;13.82;;;1.92;;
71637;SDS011;59485;43.542;-5.676;2022-11-20T15:33:21;12.97;;;1.47;;
71637;SDS011;59485;43.542;-5.676;2022-11-20T15:35:46;13.75;;;2.45;;
71637;SDS011;59485;43.542;-5.676;2022-11-20T15:38:12;12.53;;;2.13;;
71637;SDS011;59485;43.542;-5.676;2022-11-20T15:40:38;17.70;;;1.50;;
71637;SDS011;59485;43.542;-5.676;2022-11-20T15:43:03;12.63;;;2.10;;
71637;SDS011;59485;43.542;-5.676;2022-11-20T15:45:33;17.63;;;2.00;;
71637;SDS011;59485;43.542;-5.676;2022-11-20T15:48:03;12.90;;;1.98;;
71637;SDS011;59485;43.542;-5.676;2022-11-20T15:50:36;13.63;;;1.83;;
71637;SDS011;59485;43.542;-5.676;2022-11-20T15:53:03;13.80;;;1.40;;
71637;SDS011;59485;43.542;-5.676;2022-11-20T15:55:29;21.00;;;2.17;;
71637;SDS011;59485;43.542;-5.676;2022-11-20T15:57:55;13.50;;;1.67;;
71637;SDS011;59485;43.542;-5.676;2022-11-20T16:00:20;11.43;;;1.83;;
71637;SDS011;59485;43.542;-5.676;2022-11-20T16:02:46;17.30;;;2.10;;
71637;SDS011;59485;43.542;-5.676;2022-11-20T16:05:11;16.13;;;2.20;;
71637;SDS011;59485;43.542;-5.676;2022-11-20T16:07:38;19.00;;;2.03;;
71637;SDS011;59485;43.542;-5.676;2022-11-20T16:10:04;16.40;;;2.03;;
71637;SDS011;59485;43.542;-5.676;2022-11-20T16:12:30;18.73;;;1.97;;
71637;SDS011;59485;43.542;-5.676;2022-11-20T16:15:14;16.25;;;2.10;;
71637;SDS011;59485;43.542;-5.676;2022-11-20T16:17:58;16.20;;;2.35;;
71637;SDS011;59485;43.542;-5.676;2022-11-20T16:20:23;13.17;;;1.73;;
71637;SDS011;59485;43.542;-5.676;2022-11-20T16:22:49;16.33;;;1.77;;
71637;SDS011;59485;43.542;-5.676;2022-11-20T16:25:14;14.20;;;1.87;;
71637;SDS011;59485;43.542;-5.676;2022-11-20T16:27:40;14.00;;;1.43;;
71637;SDS011;59485;43.542;-5.676;2022-11-20T16:30:05;12.90;;;1.67;;
71637;SDS011;59485;43.542;-5.676;2022-11-20T16:32:31;18.58;;;2.08;;
71637;SDS011;59485;43.542;-5.676;2022-11-20T16:34:57;14.20;;;1.97;;
71637;SDS011;59485;43.542;-5.676;2022-11-20T16:37:22;23.47;;;2.03;;
71637;SDS011;59485;43.542;-5.676;2022-11-20T16:39:48;18.60;;;2.13;;
71637;SDS011;59485;43.542;-5.676;2022-11-20T16:42:14;16.20;;;1.83;;
71637;SDS011;59485;43.542;-5.676;2022-11-20T16:44:39;12.93;;;1.40;;
71637;SDS011;59485;43.542;-5.676;2022-11-20T16:47:05;16.20;;;2.00;;
71637;SDS011;59485;43.542;-5.676;2022-11-20T16:49:30;11.77;;;1.53;;
71637;SDS011;59485;43.542;-5.676;2022-11-20T16:51:57;18.45;;;2.78;;
71637;SDS011;59485;43.542;-5.676;2022-11-20T16:54:23;28.00;;;2.30;;
71637;SDS011;59485;43.542;-5.676;2022-11-20T16:56:49;19.10;;;2.30;;
71637;SDS011;59485;43.542;-5.676;2022-11-20T16:59:15;19.10;;;2.38;;
71637;SDS011;59485;43.542;-5.676;2022-11-20T17:01:41;17.20;;;2.53;;
71637;SDS011;59485;43.542;-5.676;2022-11-20T17:04:07;20.13;;;2.47;;
71637;SDS011;59485;43.542;-5.676;2022-11-20T17:06:37;25.90;;;2.60;;
71637;SDS011;59485;43.542;-5.676;2022-11-20T17:09:05;18.97;;;2.50;;
71637;SDS011;59485;43.542;-5.676;2022-11-20T17:11:33;17.40;;;1.83;;
71637;SDS011;59485;43.542;-5.676;2022-11-20T17:13:59;12.23;;;2.00;;
71637;SDS011;59485;43.542;-5.676;2022-11-20T17:16:29;12.20;;;1.65;;
71637;SDS011;59485;43.542;-5.676;2022-11-20T17:18:55;19.70;;;2.50;;
71637;SDS011;59485;43.542;-5.676;2022-11-20T17:21:22;16.87;;;2.47;;